createdAt,value
2019-05-09T00:00:19.021Z,23.40
2019-05-09T00:01:40.547Z,23.30
2019-05-09T00:03:03.485Z,23.40
2019-05-09T00:04:25.479Z,23.40
2019-05-09T00:05:46.723Z,23.40
2019-05-09T00:07:08.378Z,23.40
2019-05-09T00:08:29.686Z,23.40
2019-05-09T00:09:53.214Z,23.40
2019-05-09T00:11:14.719Z,23.40
2019-05-09T00:12:36.298Z,23.40
2019-05-09T00:13:57.855Z,23.40
2019-05-09T00:15:19.532Z,23.40
2019-05-09T00:16:40.886Z,23.40
2019-05-09T00:18:03.918Z,23.40
2019-05-09T00:19:25.162Z,23.40
2019-05-09T00:20:46.651Z,23.40
2019-05-09T00:22:08.294Z,23.40
2019-05-09T00:23:29.903Z,23.40
2019-05-09T00:24:53.791Z,23.40
2019-05-09T00:26:14.223Z,23.40
2019-05-09T00:27:36.077Z,23.40
2019-05-09T00:28:58.075Z,23.40
2019-05-09T00:30:19.675Z,23.40
2019-05-09T00:31:41.053Z,23.40
2019-05-09T00:33:03.806Z,23.40
2019-05-09T00:34:25.368Z,23.40
2019-05-09T00:35:47.086Z,23.40
2019-05-09T00:37:08.631Z,23.40
2019-05-09T00:38:30.395Z,23.40
2019-05-09T00:39:53.334Z,23.40
2019-05-09T00:41:15.063Z,23.40
2019-05-09T00:42:36.686Z,23.40
2019-05-09T00:43:58.351Z,23.40
2019-05-09T00:45:19.793Z,23.40
2019-05-09T00:46:43.077Z,23.40
2019-05-09T00:48:04.100Z,23.30
2019-05-09T00:49:25.699Z,23.40
2019-05-09T00:50:47.395Z,23.40
2019-05-09T00:52:08.738Z,23.40
2019-05-09T00:53:30.187Z,23.40
2019-05-09T00:54:53.152Z,23.30
2019-05-09T00:56:14.479Z,23.40
2019-05-09T00:57:35.871Z,23.40
2019-05-09T00:58:57.491Z,23.40
2019-05-09T01:00:19.060Z,23.30
2019-05-09T01:01:40.746Z,23.40
2019-05-09T01:03:03.594Z,23.40
2019-05-09T01:04:25.167Z,23.40
2019-05-09T01:05:47.570Z,23.40
2019-05-09T01:07:09.363Z,23.30
2019-05-09T01:08:30.828Z,23.30
2019-05-09T01:09:54.230Z,23.40
2019-05-09T01:11:15.650Z,23.40
2019-05-09T01:12:36.768Z,23.30
2019-05-09T01:13:58.563Z,23.30
2019-05-09T01:15:20.353Z,23.30
2019-05-09T01:16:43.807Z,23.30
2019-05-09T01:18:04.824Z,23.30
2019-05-09T01:19:26.507Z,23.40
2019-05-09T01:20:48.127Z,23.30
2019-05-09T01:22:09.350Z,23.30
2019-05-09T01:23:30.939Z,23.40
2019-05-09T01:24:53.408Z,23.30
2019-05-09T01:26:14.860Z,23.30
2019-05-09T01:27:36.239Z,23.30
2019-05-09T01:28:57.798Z,23.30
2019-05-09T01:30:19.443Z,23.40
2019-05-09T01:31:43.404Z,23.30
2019-05-09T01:33:04.012Z,23.30
2019-05-09T01:34:25.552Z,23.40
2019-05-09T01:35:47.299Z,23.30
2019-05-09T01:37:08.935Z,23.30
2019-05-09T01:38:30.666Z,23.40
2019-05-09T01:39:53.443Z,23.30
2019-05-09T01:41:27.136Z,23.30
2019-05-09T01:42:38.018Z,23.30
2019-05-09T01:43:59.448Z,23.30
2019-05-09T01:45:20.979Z,23.30
2019-05-09T01:46:43.623Z,23.30
2019-05-09T01:48:05.027Z,23.30
2019-05-09T01:49:26.495Z,23.30
2019-05-09T01:50:47.763Z,23.30
2019-05-09T01:52:09.340Z,23.30
2019-05-09T01:53:33.324Z,23.30
2019-05-09T01:54:54.200Z,23.30
2019-05-09T01:56:15.664Z,23.30
2019-05-09T01:57:36.966Z,23.30
2019-05-09T01:58:58.492Z,23.30
2019-05-09T02:00:20.126Z,23.40
2019-05-09T02:01:43.458Z,23.30
2019-05-09T02:03:04.846Z,23.30
2019-05-09T02:04:26.463Z,23.30
2019-05-09T02:05:47.855Z,23.30
2019-05-09T02:07:09.518Z,23.30
2019-05-09T02:08:31.107Z,23.40
2019-05-09T02:09:53.981Z,23.30
2019-05-09T02:11:15.512Z,23.30
2019-05-09T02:12:36.953Z,23.30
2019-05-09T02:13:58.427Z,23.30
2019-05-09T02:15:19.819Z,23.30
2019-05-09T02:16:43.258Z,23.30
2019-05-09T02:18:05.228Z,23.30
2019-05-09T02:19:26.712Z,23.30
2019-05-09T02:20:48.323Z,23.30
2019-05-09T02:22:09.699Z,23.30
2019-05-09T02:23:30.983Z,23.30
2019-05-09T02:24:53.493Z,23.30
2019-05-09T02:26:15.134Z,23.30
2019-05-09T02:27:36.745Z,23.30
2019-05-09T02:28:58.542Z,23.30
2019-05-09T02:30:20.221Z,23.30
2019-05-09T02:31:44.596Z,23.30
2019-05-09T02:33:05.212Z,23.30
2019-05-09T02:34:26.568Z,23.40
2019-05-09T02:35:56.829Z,23.30
2019-05-09T02:37:10.685Z,23.30
2019-05-09T02:38:32.029Z,23.30
2019-05-09T02:39:53.863Z,23.30
2019-05-09T02:41:15.473Z,23.30
2019-05-09T02:42:39.704Z,23.30
2019-05-09T02:43:59.597Z,23.30
2019-05-09T02:45:21.196Z,23.30
2019-05-09T02:46:42.829Z,23.30
2019-05-09T02:48:04.570Z,23.30
2019-05-09T02:49:28.454Z,23.30
2019-05-09T02:50:48.877Z,23.30
2019-05-09T02:52:10.326Z,23.30
2019-05-09T02:53:31.908Z,23.30
2019-05-09T02:54:53.224Z,23.30
2019-05-09T02:56:14.882Z,23.30
2019-05-09T02:57:37.523Z,23.30
2019-05-09T02:58:59.116Z,23.30
2019-05-09T03:00:20.595Z,23.30
2019-05-09T03:01:41.818Z,23.30
2019-05-09T03:03:03.335Z,23.30
2019-05-09T03:04:28.154Z,23.30
2019-05-09T03:05:48.852Z,23.30
2019-05-09T03:07:10.594Z,23.30
2019-05-09T03:08:32.223Z,23.30
2019-05-09T03:09:53.701Z,23.30
2019-05-09T03:11:18.546Z,23.30
2019-05-09T03:12:39.877Z,23.30
2019-05-09T03:14:01.163Z,23.30
2019-05-09T03:15:22.925Z,23.30
2019-05-09T03:16:44.332Z,23.30
2019-05-09T03:18:08.534Z,23.30
2019-05-09T03:19:29.668Z,23.30
2019-05-09T03:20:51.544Z,23.30
2019-05-09T03:22:12.960Z,23.30
2019-05-09T03:23:35.047Z,23.30
2019-05-09T03:24:58.842Z,23.30
2019-05-09T03:26:19.724Z,23.30
2019-05-09T03:27:41.465Z,23.30
2019-05-09T03:29:03.104Z,23.30
2019-05-09T03:30:24.527Z,23.30
2019-05-09T03:31:49.782Z,23.30
2019-05-09T03:33:10.239Z,23.30
2019-05-09T03:34:32.254Z,23.30
2019-05-09T03:35:53.658Z,23.30
2019-05-09T03:37:15.000Z,23.30
2019-05-09T03:38:37.727Z,23.30
2019-05-09T03:39:59.386Z,23.30
2019-05-09T03:41:21.273Z,23.30
2019-05-09T03:42:43.755Z,23.30
2019-05-09T03:44:07.214Z,23.30
2019-05-09T03:45:28.153Z,23.30
2019-05-09T03:46:49.686Z,23.30
2019-05-09T03:48:11.403Z,23.30
2019-05-09T03:49:32.704Z,23.30
2019-05-09T03:50:54.304Z,23.30
2019-05-09T03:52:17.762Z,23.30
2019-05-09T03:53:38.887Z,23.30
2019-05-09T03:55:00.511Z,23.30
2019-05-09T03:56:21.726Z,23.30
2019-05-09T03:57:43.442Z,23.30
2019-05-09T03:59:05.074Z,23.30
2019-05-09T04:00:28.327Z,23.30
2019-05-09T04:01:50.283Z,23.30
2019-05-09T04:03:12.395Z,23.30
2019-05-09T04:04:33.790Z,23.30
2019-05-09T04:05:59.937Z,23.30
2019-05-09T04:07:18.674Z,23.30
2019-05-09T04:08:40.422Z,23.30
2019-05-09T04:10:02.211Z,23.30
2019-05-09T04:11:23.967Z,23.30
2019-05-09T04:12:55.561Z,23.30
2019-05-09T04:14:08.837Z,23.30
2019-05-09T04:15:30.203Z,23.30
2019-05-09T04:16:51.820Z,23.30
2019-05-09T04:18:13.445Z,23.30
2019-05-09T04:19:35.084Z,23.30
2019-05-09T04:20:57.339Z,23.30
2019-05-09T04:22:18.753Z,23.30
2019-05-09T04:23:40.041Z,23.30
2019-05-09T04:25:01.639Z,23.30
2019-05-09T04:26:23.563Z,23.30
2019-05-09T04:27:45.298Z,23.30
2019-05-09T04:29:08.125Z,23.30
2019-05-09T04:30:29.764Z,23.30
2019-05-09T04:31:51.616Z,23.30
2019-05-09T04:33:13.183Z,23.30
2019-05-09T04:34:34.552Z,23.30
2019-05-09T04:35:57.775Z,23.30
2019-05-09T04:37:18.949Z,23.30
2019-05-09T04:38:40.311Z,23.30
2019-05-09T04:40:03.416Z,23.30
2019-05-09T04:41:25.419Z,23.30
2019-05-09T04:42:47.420Z,23.30
2019-05-09T04:44:16.638Z,23.30
2019-05-09T04:45:33.138Z,23.30
2019-05-09T04:46:59.097Z,23.30
2019-05-09T04:48:20.325Z,23.30
2019-05-09T04:49:44.954Z,23.30
2019-05-09T04:51:04.632Z,23.30
2019-05-09T04:52:27.908Z,23.40
2019-05-09T04:53:49.308Z,23.40
2019-05-09T04:55:10.794Z,23.40
2019-05-09T04:56:32.062Z,23.30
2019-05-09T04:57:53.638Z,23.40
2019-05-09T04:59:15.203Z,23.40
2019-05-09T05:00:37.727Z,23.30
2019-05-09T05:01:59.033Z,23.40
2019-05-09T05:03:20.739Z,23.30
2019-05-09T05:04:42.159Z,23.30
2019-05-09T05:06:03.589Z,23.40
2019-05-09T05:07:25.183Z,23.40
2019-05-09T05:08:47.891Z,23.30
2019-05-09T05:10:10.037Z,23.30
2019-05-09T05:11:31.455Z,23.30
2019-05-09T05:12:52.683Z,23.40
2019-05-09T05:14:14.043Z,23.30
2019-05-09T05:15:37.692Z,23.40
2019-05-09T05:17:07.387Z,23.40
2019-05-09T05:18:22.175Z,23.40
2019-05-09T05:19:44.083Z,23.40
2019-05-09T05:21:07.856Z,23.40
2019-05-09T05:22:29.076Z,23.30
2019-05-09T05:23:50.736Z,23.20
2019-05-09T05:25:12.600Z,22.90
2019-05-09T05:26:33.947Z,22.80
2019-05-09T05:27:57.923Z,22.60
2019-05-09T05:29:18.319Z,22.50
2019-05-09T05:30:39.656Z,22.40
2019-05-09T05:32:01.255Z,22.30
2019-05-09T05:33:22.646Z,22.30
2019-05-09T05:34:44.290Z,22.20
2019-05-09T05:36:07.753Z,22.30
2019-05-09T05:37:29.210Z,22.30
2019-05-09T05:38:51.431Z,22.20
2019-05-09T05:40:12.799Z,22.20
2019-05-09T05:41:34.473Z,22.20
2019-05-09T05:42:58.467Z,22.10
2019-05-09T05:44:19.305Z,22.20
2019-05-09T05:45:40.935Z,22.20
2019-05-09T05:47:02.444Z,22.20
2019-05-09T05:48:24.044Z,22.10
2019-05-09T05:49:45.510Z,22.10
2019-05-09T05:51:08.114Z,22.10
2019-05-09T05:52:29.767Z,22.10
2019-05-09T05:53:51.323Z,22.10
2019-05-09T05:55:13.086Z,22.20
2019-05-09T05:56:34.459Z,22.20
2019-05-09T05:57:57.944Z,22.30
2019-05-09T05:59:18.929Z,22.30
2019-05-09T06:00:40.391Z,22.40
2019-05-09T06:02:01.691Z,22.30
2019-05-09T06:03:23.243Z,22.40
2019-05-09T06:04:44.803Z,22.40
2019-05-09T06:06:08.603Z,22.50
2019-05-09T06:07:29.375Z,22.50
2019-05-09T06:08:50.925Z,22.60
2019-05-09T06:10:12.212Z,22.50
2019-05-09T06:11:33.792Z,22.50
2019-05-09T06:12:57.444Z,22.30
2019-05-09T06:14:18.711Z,22.30
2019-05-09T06:15:40.236Z,22.20
2019-05-09T06:17:01.701Z,22.30
2019-05-09T06:18:23.429Z,22.30
2019-05-09T06:19:45.071Z,22.30
2019-05-09T06:21:08.780Z,22.40
2019-05-09T06:22:29.650Z,22.40
2019-05-09T06:23:51.106Z,22.40
2019-05-09T06:25:12.489Z,22.40
2019-05-09T06:26:34.110Z,22.40
2019-05-09T06:27:58.245Z,22.40
2019-05-09T06:29:19.192Z,22.50
2019-05-09T06:30:41.160Z,22.50
2019-05-09T06:32:02.635Z,22.50
2019-05-09T06:33:23.932Z,22.50
2019-05-09T06:34:47.720Z,22.60
2019-05-09T06:36:09.536Z,22.60
2019-05-09T06:37:31.114Z,22.70
2019-05-09T06:38:52.620Z,22.70
2019-05-09T06:40:21.282Z,22.70
2019-05-09T06:41:41.056Z,22.70
2019-05-09T06:43:02.279Z,22.80
2019-05-09T06:44:24.099Z,22.70
2019-05-09T06:45:45.600Z,22.80
2019-05-09T06:47:08.274Z,22.80
2019-05-09T06:48:29.950Z,22.80
2019-05-09T06:49:51.807Z,22.80
2019-05-09T06:51:13.443Z,22.80
2019-05-09T06:52:34.791Z,22.80
2019-05-09T06:53:58.379Z,22.70
2019-05-09T06:55:19.398Z,22.60
2019-05-09T06:56:40.750Z,22.70
2019-05-09T06:58:02.497Z,22.80
2019-05-09T06:59:24.072Z,22.80
2019-05-09T07:00:45.695Z,22.90
2019-05-09T07:02:08.208Z,23.00
2019-05-09T07:03:29.794Z,23.00
2019-05-09T07:04:51.694Z,23.00
2019-05-09T07:06:13.371Z,23.10
2019-05-09T07:07:37.315Z,23.10
2019-05-09T07:08:58.593Z,23.20
2019-05-09T07:10:20.104Z,23.20
2019-05-09T07:11:41.405Z,23.20
2019-05-09T07:13:03.010Z,23.20
2019-05-09T07:14:29.021Z,23.20
2019-05-09T07:15:49.512Z,23.20
2019-05-09T07:17:11.139Z,23.30
2019-05-09T07:18:32.444Z,23.30
2019-05-09T07:19:53.867Z,23.40
2019-05-09T07:21:15.316Z,23.40
2019-05-09T07:22:39.191Z,23.40
2019-05-09T07:24:00.195Z,23.40
2019-05-09T07:25:21.714Z,23.50
2019-05-09T07:26:43.059Z,23.50
2019-05-09T07:28:04.660Z,23.60
2019-05-09T07:29:28.415Z,23.60
2019-05-09T07:30:49.431Z,23.60
2019-05-09T07:32:11.907Z,23.70
2019-05-09T07:33:33.930Z,23.60
2019-05-09T07:34:57.775Z,23.60
2019-05-09T07:36:19.041Z,23.60
2019-05-09T07:37:40.366Z,23.60
2019-05-09T07:39:01.646Z,23.70
2019-05-09T07:40:26.681Z,23.80
2019-05-09T07:41:47.808Z,23.80
2019-05-09T07:43:09.264Z,23.80
2019-05-09T07:44:45.365Z,23.70
2019-05-09T07:45:53.343Z,23.80
2019-05-09T07:47:14.682Z,23.70
2019-05-09T07:48:38.143Z,23.70
2019-05-09T07:49:58.916Z,23.70
2019-05-09T07:51:20.616Z,23.60
2019-05-09T07:52:42.235Z,23.60
2019-05-09T07:54:18.229Z,23.70
2019-05-09T07:55:27.535Z,23.80
2019-05-09T07:56:48.694Z,23.90
2019-05-09T07:58:09.947Z,23.90
2019-05-09T07:59:31.609Z,23.90
2019-05-09T08:00:53.030Z,24.00
2019-05-09T08:02:14.415Z,24.00
2019-05-09T08:03:38.437Z,24.10
2019-05-09T08:04:59.892Z,24.00
2019-05-09T08:06:21.325Z,24.10
2019-05-09T08:07:43.428Z,24.10
2019-05-09T08:09:08.357Z,24.10
2019-05-09T08:10:32.922Z,24.20
2019-05-09T08:11:51.939Z,24.30
2019-05-09T08:13:13.599Z,24.30
2019-05-09T08:14:37.531Z,24.40
2019-05-09T08:15:58.651Z,24.40
2019-05-09T08:17:20.194Z,24.30
2019-05-09T08:18:41.699Z,24.30
2019-05-09T08:20:04.317Z,24.40
2019-05-09T08:21:27.703Z,24.30
2019-05-09T08:22:57.662Z,24.30
2019-05-09T08:24:12.630Z,24.40
2019-05-09T08:25:34.231Z,24.40
2019-05-09T08:26:58.005Z,24.40
2019-05-09T08:28:20.146Z,24.40
2019-05-09T08:29:42.063Z,24.40
2019-05-09T08:31:03.691Z,24.40
2019-05-09T08:32:25.279Z,24.40
2019-05-09T08:33:48.469Z,24.40
2019-05-09T08:35:10.191Z,24.50
2019-05-09T08:36:31.955Z,24.40
2019-05-09T08:37:53.184Z,24.40
2019-05-09T08:39:14.963Z,24.40
2019-05-09T08:40:38.235Z,24.40
2019-05-09T08:41:59.775Z,24.40
2019-05-09T08:43:21.383Z,24.40
2019-05-09T08:44:43.180Z,24.40
2019-05-09T08:46:04.944Z,24.40
2019-05-09T08:47:28.347Z,24.40
2019-05-09T08:48:49.704Z,24.40
2019-05-09T08:50:11.411Z,24.50
2019-05-09T08:51:36.787Z,24.50
2019-05-09T08:52:57.586Z,24.50
2019-05-09T08:54:19.044Z,24.50
2019-05-09T08:55:40.635Z,24.50
2019-05-09T08:57:02.351Z,24.40
2019-05-09T08:58:24.867Z,24.40
2019-05-09T08:59:49.709Z,24.40
2019-05-09T09:01:11.277Z,24.30
2019-05-09T09:02:31.995Z,24.40
2019-05-09T09:03:53.302Z,24.40
2019-05-09T09:05:14.854Z,24.40
2019-05-09T09:06:37.989Z,24.40
2019-05-09T09:07:59.369Z,24.50
2019-05-09T09:09:21.004Z,24.40
2019-05-09T09:10:42.327Z,24.40
2019-05-09T09:12:03.880Z,24.40
2019-05-09T09:13:25.643Z,24.40
2019-05-09T09:14:47.831Z,24.40
2019-05-09T09:16:18.492Z,24.40
2019-05-09T09:17:32.387Z,24.50
2019-05-09T09:18:54.114Z,24.50
2019-05-09T09:20:17.903Z,24.50
2019-05-09T09:21:38.809Z,24.50
2019-05-09T09:23:00.115Z,24.50
2019-05-09T09:24:21.590Z,24.50
2019-05-09T09:25:43.294Z,24.50
2019-05-09T09:27:04.843Z,24.50
2019-05-09T09:28:27.626Z,24.50
2019-05-09T09:29:49.103Z,24.50
2019-05-09T09:31:10.763Z,24.60
2019-05-09T09:32:32.355Z,24.60
2019-05-09T09:33:53.866Z,24.60
2019-05-09T09:35:15.486Z,24.70
2019-05-09T09:36:39.092Z,24.70
2019-05-09T09:38:00.160Z,24.70
2019-05-09T09:39:21.416Z,24.70
2019-05-09T09:40:43.015Z,24.70
2019-05-09T09:42:04.607Z,24.70
2019-05-09T09:43:27.982Z,24.70
2019-05-09T09:44:48.867Z,24.70
2019-05-09T09:46:14.664Z,24.70
2019-05-09T09:47:33.725Z,24.70
2019-05-09T09:48:55.229Z,24.70
2019-05-09T09:50:17.700Z,24.70
2019-05-09T09:51:39.320Z,24.70
2019-05-09T09:53:01.211Z,24.70
2019-05-09T09:54:22.828Z,24.60
2019-05-09T09:55:44.211Z,24.60
2019-05-09T09:57:05.899Z,24.60
2019-05-09T09:58:27.437Z,24.60
2019-05-09T09:59:48.867Z,24.70
2019-05-09T10:01:10.100Z,24.70
2019-05-09T10:02:31.799Z,24.70
2019-05-09T10:03:53.460Z,24.60
2019-05-09T10:05:14.968Z,24.60
2019-05-09T10:06:38.810Z,24.70
2019-05-09T10:07:59.424Z,24.70
2019-05-09T10:09:21.126Z,24.70
2019-05-09T10:10:42.697Z,24.70
2019-05-09T10:12:03.988Z,24.70
2019-05-09T10:13:25.547Z,24.70
2019-05-09T10:14:47.026Z,24.70
2019-05-09T10:16:24.569Z,24.70
2019-05-09T10:17:31.629Z,24.70
2019-05-09T10:18:53.334Z,24.60
2019-05-09T10:20:14.826Z,24.60
2019-05-09T10:21:38.245Z,24.50
2019-05-09T10:23:10.067Z,24.50
2019-05-09T10:24:22.092Z,24.50
2019-05-09T10:25:43.768Z,24.40
2019-05-09T10:27:08.279Z,24.30
2019-05-09T10:28:30.077Z,24.40
2019-05-09T10:29:50.874Z,24.40
2019-05-09T10:31:12.804Z,24.40
2019-05-09T10:32:34.122Z,24.30
2019-05-09T10:33:57.839Z,24.30
2019-05-09T10:35:22.227Z,24.30
2019-05-09T10:36:43.699Z,24.30
2019-05-09T10:38:08.470Z,24.30
2019-05-09T10:39:28.153Z,24.30
2019-05-09T10:40:53.159Z,24.30
2019-05-09T10:42:12.756Z,24.20
2019-05-09T10:43:38.669Z,24.20
2019-05-09T10:44:58.226Z,24.10
2019-05-09T10:46:20.014Z,24.10
2019-05-09T10:47:41.759Z,24.10
2019-05-09T10:49:03.421Z,24.10
2019-05-09T10:50:24.835Z,24.10
2019-05-09T10:51:48.366Z,24.10
2019-05-09T10:53:09.107Z,24.10
2019-05-09T10:54:30.835Z,24.10
2019-05-09T10:55:52.528Z,24.10
2019-05-09T10:59:30.751Z,24.10
2019-05-09T11:01:14.238Z,24.10
2019-05-09T11:02:36.468Z,24.00
2019-05-09T11:03:58.869Z,24.10
2019-05-09T11:05:20.896Z,24.10
2019-05-09T11:06:42.115Z,24.00
2019-05-09T11:08:03.852Z,24.10
2019-05-09T11:09:25.445Z,24.10
2019-05-09T11:10:47.556Z,24.10
2019-05-09T11:12:09.227Z,24.10
2019-05-09T11:13:30.592Z,24.10
2019-05-09T11:14:52.159Z,24.10
2019-05-09T11:16:13.511Z,24.10
2019-05-09T11:17:35.260Z,24.10
2019-05-09T11:18:58.482Z,24.10
2019-05-09T11:20:19.747Z,24.10
2019-05-09T11:21:41.184Z,24.10
2019-05-09T11:23:02.964Z,24.10
2019-05-09T11:24:38.850Z,24.10
2019-05-09T11:25:47.618Z,24.10
2019-05-09T11:27:08.784Z,24.10
2019-05-09T11:28:30.371Z,24.10
2019-05-09T11:29:52.115Z,24.10
2019-05-09T11:31:13.661Z,24.10
2019-05-09T11:32:35.157Z,24.10
2019-05-09T11:33:57.848Z,24.10
2019-05-09T11:35:19.559Z,24.10
2019-05-09T11:36:41.123Z,24.10
2019-05-09T11:38:02.611Z,24.10
2019-05-09T11:39:35.709Z,24.20
2019-05-09T11:40:48.315Z,24.20
2019-05-09T11:42:10.194Z,24.30
2019-05-09T11:43:31.764Z,24.30
2019-05-09T11:44:53.293Z,24.30
2019-05-09T11:46:14.890Z,24.30
2019-05-09T11:47:42.572Z,24.30
2019-05-09T11:48:59.898Z,24.40
2019-05-09T11:50:23.134Z,24.40
2019-05-09T11:51:44.211Z,24.40
2019-05-09T11:53:05.627Z,24.40
2019-05-09T11:54:27.935Z,24.40
2019-05-09T11:55:49.304Z,24.50
2019-05-09T11:57:11.008Z,24.50
2019-05-09T11:58:32.654Z,24.50
2019-05-09T11:59:54.203Z,24.50
2019-05-09T12:01:15.431Z,24.50
2019-05-09T12:02:38.455Z,24.50
2019-05-09T12:04:00.088Z,24.50
2019-05-09T12:05:21.532Z,24.60
2019-05-09T12:06:42.900Z,24.50
2019-05-09T12:08:04.794Z,24.60
2019-05-09T12:09:28.592Z,24.60
2019-05-09T12:10:48.987Z,24.60
2019-05-09T12:12:10.637Z,24.60
2019-05-09T12:13:32.079Z,24.60
2019-05-09T12:14:53.362Z,24.60
2019-05-09T12:16:15.016Z,24.60
2019-05-09T12:17:52.943Z,24.60
2019-05-09T12:18:59.428Z,24.60
2019-05-09T12:20:21.206Z,24.60
2019-05-09T12:21:47.915Z,24.70
2019-05-09T12:23:07.765Z,24.70
2019-05-09T12:24:29.623Z,24.70
2019-05-09T12:25:51.227Z,24.70
2019-05-09T12:27:12.799Z,24.70
2019-05-09T12:28:34.355Z,24.50
2019-05-09T12:29:58.181Z,24.40
2019-05-09T12:31:19.183Z,24.20
2019-05-09T12:32:40.648Z,24.20
2019-05-09T12:34:02.113Z,24.20
2019-05-09T12:35:23.668Z,24.20
2019-05-09T12:36:45.302Z,24.20
2019-05-09T12:38:08.339Z,24.10
2019-05-09T12:39:30.231Z,24.20
2019-05-09T12:40:51.865Z,24.20
2019-05-09T12:42:13.228Z,24.20
2019-05-09T12:43:34.743Z,24.20
2019-05-09T12:44:58.777Z,24.20
2019-05-09T12:46:19.896Z,24.20
2019-05-09T12:47:41.139Z,24.20
2019-05-09T12:49:02.404Z,24.20
2019-05-09T12:50:23.843Z,24.30
2019-05-09T12:51:45.177Z,24.20
2019-05-09T12:53:06.949Z,24.20
2019-05-09T12:54:28.344Z,24.20
2019-05-09T12:55:50.076Z,24.30
2019-05-09T12:57:11.659Z,24.30
2019-05-09T12:58:33.299Z,24.30
2019-05-09T12:59:55.098Z,24.30
2019-05-09T13:01:18.826Z,24.40
2019-05-09T13:02:39.204Z,24.40
2019-05-09T13:04:00.520Z,24.40
2019-05-09T13:05:21.995Z,24.40
2019-05-09T13:06:43.346Z,24.40
2019-05-09T13:08:04.837Z,24.40
2019-05-09T13:09:28.598Z,24.40
2019-05-09T13:10:49.432Z,24.40
2019-05-09T13:12:10.747Z,24.40
2019-05-09T13:13:32.471Z,24.40
2019-05-09T13:14:53.705Z,24.50
2019-05-09T13:16:17.544Z,24.50
2019-05-09T13:17:38.865Z,24.50
2019-05-09T13:19:02.442Z,24.50
2019-05-09T13:20:23.134Z,24.50
2019-05-09T13:21:44.612Z,24.50
2019-05-09T13:23:08.705Z,24.50
2019-05-09T13:24:29.376Z,24.50
2019-05-09T13:25:51.063Z,24.50
2019-05-09T13:27:12.790Z,24.60
2019-05-09T13:28:34.157Z,24.60
2019-05-09T13:29:55.835Z,24.60
2019-05-09T13:31:18.203Z,24.70
2019-05-09T13:32:39.767Z,24.70
2019-05-09T13:34:01.133Z,24.70
2019-05-09T13:35:22.508Z,24.70
2019-05-09T13:36:44.075Z,24.70
2019-05-09T13:38:08.489Z,24.70
2019-05-09T13:39:28.507Z,24.70
2019-05-09T13:40:53.538Z,24.70
2019-05-09T13:42:12.688Z,24.70
2019-05-09T13:43:34.051Z,24.70
2019-05-09T13:44:55.743Z,24.70
2019-05-09T13:46:18.053Z,24.70
2019-05-09T13:47:39.654Z,24.70
2019-05-09T13:49:11.505Z,24.80
2019-05-09T13:50:25.159Z,24.80
2019-05-09T13:51:54.875Z,24.80
2019-05-09T13:53:09.691Z,24.80
2019-05-09T13:54:31.588Z,24.70
2019-05-09T13:55:53.271Z,24.70
2019-05-09T13:57:14.923Z,24.70
2019-05-09T13:58:38.283Z,24.70
2019-05-09T13:59:59.761Z,24.70
2019-05-09T14:01:21.329Z,24.70
2019-05-09T14:02:45.135Z,24.70
2019-05-09T14:04:07.988Z,24.70
2019-05-09T14:05:29.281Z,24.80
2019-05-09T14:06:51.064Z,24.80
2019-05-09T14:08:12.811Z,24.80
2019-05-09T14:09:34.370Z,24.80
2019-05-09T14:10:55.596Z,24.80
2019-05-09T14:12:17.843Z,24.80
2019-05-09T14:13:39.231Z,24.80
2019-05-09T14:15:00.727Z,24.80
2019-05-09T14:16:22.587Z,24.80
2019-05-09T14:17:49.546Z,24.80
2019-05-09T14:19:25.999Z,24.80
2019-05-09T14:20:29.512Z,24.80
2019-05-09T14:21:50.970Z,24.80
2019-05-09T14:23:12.754Z,24.90
2019-05-09T14:24:34.287Z,24.90
2019-05-09T14:25:58.853Z,24.80
2019-05-09T14:27:18.844Z,24.90
2019-05-09T14:28:40.635Z,24.90
2019-05-09T14:30:02.726Z,24.90
2019-05-09T14:31:28.964Z,24.90
2019-05-09T14:32:49.716Z,24.90
2019-05-09T14:34:11.383Z,24.90
2019-05-09T14:35:33.100Z,24.90
2019-05-09T14:36:54.654Z,24.90
2019-05-09T14:38:18.301Z,24.90
2019-05-09T14:39:54.397Z,25.00
2019-05-09T14:41:01.955Z,25.00
2019-05-09T14:42:23.392Z,25.00
2019-05-09T14:43:44.703Z,24.90
2019-05-09T14:45:08.455Z,24.90
2019-05-09T14:46:29.074Z,24.90
2019-05-09T14:47:50.431Z,24.90
2019-05-09T14:49:12.002Z,24.90
2019-05-09T14:50:33.620Z,24.90
2019-05-09T14:51:57.781Z,24.90
2019-05-09T14:53:18.292Z,24.90
2019-05-09T14:54:39.634Z,24.90
2019-05-09T14:56:02.042Z,24.90
2019-05-09T14:57:23.688Z,24.90
2019-05-09T14:58:45.319Z,24.90
2019-05-09T15:00:07.886Z,24.90
2019-05-09T15:01:29.523Z,24.90
2019-05-09T15:02:51.153Z,24.80
2019-05-09T15:04:12.887Z,24.90
2019-05-09T15:05:34.254Z,24.90
2019-05-09T15:06:57.733Z,24.90
2019-05-09T15:08:18.807Z,24.90
2019-05-09T15:09:40.395Z,24.90
2019-05-09T15:11:02.063Z,24.90
2019-05-09T15:12:23.380Z,24.80
2019-05-09T15:13:47.558Z,24.90
2019-05-09T15:15:08.154Z,24.90
2019-05-09T15:16:29.772Z,24.90
2019-05-09T15:17:51.172Z,24.80
2019-05-09T15:19:12.997Z,24.80
2019-05-09T15:20:34.595Z,24.80
2019-05-09T15:21:57.847Z,24.90
2019-05-09T15:23:19.776Z,24.80
2019-05-09T15:24:41.563Z,24.70
2019-05-09T15:26:03.491Z,24.70
2019-05-09T15:27:24.823Z,24.70
2019-05-09T15:28:48.171Z,24.70
2019-05-09T15:30:09.504Z,24.60
2019-05-09T15:31:30.860Z,24.50
2019-05-09T15:32:52.298Z,24.50
2019-05-09T15:34:13.913Z,24.50
2019-05-09T15:35:35.368Z,24.50
2019-05-09T15:36:58.336Z,24.40
2019-05-09T15:38:22.373Z,24.30
2019-05-09T15:39:42.759Z,24.30
2019-05-09T15:41:04.731Z,24.30
2019-05-09T15:42:26.046Z,24.30
2019-05-09T15:43:48.553Z,24.20
2019-05-09T15:45:10.039Z,24.20
2019-05-09T15:46:31.477Z,24.10
2019-05-09T15:47:53.047Z,24.10
2019-05-09T15:49:14.391Z,24.10
2019-05-09T15:50:37.993Z,24.20
2019-05-09T15:51:58.983Z,24.20
2019-05-09T15:53:20.623Z,24.10
2019-05-09T15:54:42.128Z,24.10
2019-05-09T15:56:03.599Z,24.10
2019-05-09T15:57:27.406Z,24.00
2019-05-09T15:58:49.173Z,23.90
2019-05-09T16:00:10.999Z,23.80
2019-05-09T16:01:32.044Z,23.90
2019-05-09T16:02:53.693Z,23.90
2019-05-09T16:04:17.567Z,23.90
2019-05-09T16:05:38.595Z,23.80
2019-05-09T16:06:59.919Z,23.80
2019-05-09T16:08:21.507Z,23.90
2019-05-09T16:09:43.516Z,24.00
2019-05-09T16:11:04.920Z,24.00
2019-05-09T16:12:27.776Z,24.10
2019-05-09T16:13:49.439Z,24.10
2019-05-09T16:15:11.071Z,24.10
2019-05-09T16:16:32.761Z,24.20
2019-05-09T16:17:54.276Z,24.20
2019-05-09T16:19:15.623Z,24.30
2019-05-09T16:20:40.954Z,24.30
2019-05-09T16:22:02.100Z,24.30
2019-05-09T16:23:22.883Z,24.30
2019-05-09T16:24:44.219Z,24.30
2019-05-09T16:26:07.786Z,24.30
2019-05-09T16:27:28.614Z,24.40
2019-05-09T16:28:50.318Z,24.40
2019-05-09T16:30:11.552Z,24.40
2019-05-09T16:31:32.887Z,24.40
2019-05-09T16:32:54.676Z,24.40
2019-05-09T16:34:17.781Z,24.40
2019-05-09T16:35:38.895Z,24.40
2019-05-09T16:37:01.351Z,24.40
2019-05-09T16:38:23.068Z,24.40
2019-05-09T16:39:44.687Z,24.40
2019-05-09T16:41:07.696Z,24.40
2019-05-09T16:42:29.237Z,24.40
2019-05-09T16:43:51.047Z,24.40
2019-05-09T16:45:12.341Z,24.40
2019-05-09T16:46:34.080Z,24.40
2019-05-09T16:47:57.447Z,24.40
2019-05-09T16:49:19.951Z,24.50
2019-05-09T16:50:56.010Z,24.40
2019-05-09T16:52:04.496Z,24.50
2019-05-09T16:53:27.837Z,24.40
2019-05-09T16:54:50.124Z,24.50
2019-05-09T16:56:11.435Z,24.40
2019-05-09T16:57:33.068Z,24.50
2019-05-09T16:58:54.436Z,24.50
2019-05-09T17:00:30.640Z,24.50
2019-05-09T17:01:52.293Z,24.50
2019-05-09T17:03:13.819Z,24.50
2019-05-09T17:04:35.421Z,24.40
2019-05-09T17:05:58.285Z,24.40
2019-05-09T17:07:19.867Z,24.40
2019-05-09T17:08:41.483Z,24.50
2019-05-09T17:10:02.798Z,24.40
2019-05-09T17:11:27.653Z,24.50
2019-05-09T17:12:47.887Z,24.50
2019-05-09T17:14:09.658Z,24.50
2019-05-09T17:15:30.962Z,24.40
2019-05-09T17:16:53.176Z,24.40
2019-05-09T17:18:14.945Z,24.50
2019-05-09T17:19:37.778Z,24.40
2019-05-09T17:21:14.597Z,24.40
2019-05-09T17:22:22.079Z,24.40
2019-05-09T17:23:44.321Z,24.40
2019-05-09T17:25:07.859Z,24.40
2019-05-09T17:26:28.867Z,24.40
2019-05-09T17:27:50.508Z,24.40
2019-05-09T17:29:12.161Z,24.40
2019-05-09T17:30:33.768Z,24.40
2019-05-09T17:31:55.451Z,24.40
2019-05-09T17:33:16.731Z,24.40
2019-05-09T17:34:41.996Z,24.40
2019-05-09T17:36:01.716Z,24.40
2019-05-09T17:37:23.040Z,24.40